sensor_id;sensor_type;location;lat;lon;timestamp;pressure;altitude;pressure_sealevel;temperature;humidity
7026;BME280;3554;42.132;24.786;2023-04-30T00:01:23;99059.63;;;15.65;100.00
7026;BME280;3554;42.132;24.786;2023-04-30T00:03:50;99049.03;;;15.53;100.00
7026;BME280;3554;42.132;24.786;2023-04-30T00:06:18;99056.56;;;15.59;100.00
7026;BME280;3554;42.132;24.786;2023-04-30T00:08:45;99058.38;;;15.71;100.00
7026;BME280;3554;42.132;24.786;2023-04-30T00:11:12;99055.97;;;15.80;100.00
7026;BME280;3554;42.132;24.786;2023-04-30T00:13:39;99051.28;;;15.59;100.00
7026;BME280;3554;42.132;24.786;2023-04-30T00:16:07;99056.47;;;15.20;100.00
7026;BME280;3554;42.132;24.786;2023-04-30T00:18:33;99061.22;;;15.15;100.00
7026;BME280;3554;42.132;24.786;2023-04-30T00:21:00;99054.22;;;15.14;100.00
7026;BME280;3554;42.132;24.786;2023-04-30T00:23:28;99051.19;;;15.20;100.00
7026;BME280;3554;42.132;24.786;2023-04-30T00:25:55;99053.84;;;15.20;100.00
7026;BME280;3554;42.132;24.786;2023-04-30T00:28:22;99058.75;;;15.12;100.00
7026;BME280;3554;42.132;24.786;2023-04-30T00:30:48;99058.00;;;15.10;100.00
7026;BME280;3554;42.132;24.786;2023-04-30T00:33:15;99055.19;;;15.13;100.00
7026;BME280;3554;42.132;24.786;2023-04-30T00:35:42;99069.56;;;15.21;100.00
7026;BME280;3554;42.132;24.786;2023-04-30T00:38:09;99059.28;;;15.31;100.00
7026;BME280;3554;42.132;24.786;2023-04-30T00:40:37;99065.91;;;15.36;100.00
7026;BME280;3554;42.132;24.786;2023-04-30T00:43:05;99059.44;;;15.42;100.00
7026;BME280;3554;42.132;24.786;2023-04-30T00:45:32;99053.38;;;15.40;100.00
7026;BME280;3554;42.132;24.786;2023-04-30T00:47:59;99068.38;;;15.39;100.00
7026;BME280;3554;42.132;24.786;2023-04-30T00:50:26;99058.94;;;15.49;100.00
7026;BME280;3554;42.132;24.786;2023-04-30T00:52:54;99061.84;;;15.59;100.00
7026;BME280;3554;42.132;24.786;2023-04-30T00:55:21;99059.78;;;15.50;100.00
7026;BME280;3554;42.132;24.786;2023-04-30T00:57:50;99063.91;;;15.40;100.00
7026;BME280;3554;42.132;24.786;2023-04-30T01:00:17;99054.59;;;15.22;100.00
7026;BME280;3554;42.132;24.786;2023-04-30T01:02:44;99057.31;;;15.20;100.00
7026;BME280;3554;42.132;24.786;2023-04-30T01:05:11;99050.06;;;15.10;100.00
7026;BME280;3554;42.132;24.786;2023-04-30T01:07:38;99061.78;;;15.06;100.00
7026;BME280;3554;42.132;24.786;2023-04-30T01:10:09;99065.16;;;14.93;100.00
7026;BME280;3554;42.132;24.786;2023-04-30T01:12:40;99061.81;;;14.91;100.00
7026;BME280;3554;42.132;24.786;2023-04-30T01:15:17;99064.16;;;14.82;100.00
7026;BME280;3554;42.132;24.786;2023-04-30T01:17:49;99059.00;;;14.80;100.00
7026;BME280;3554;42.132;24.786;2023-04-30T01:20:19;99056.63;;;14.76;100.00
7026;BME280;3554;42.132;24.786;2023-04-30T01:22:51;99059.94;;;14.51;100.00
7026;BME280;3554;42.132;24.786;2023-04-30T01:25:41;99053.94;;;14.49;100.00
7026;BME280;3554;42.132;24.786;2023-04-30T01:28:13;99043.69;;;14.45;100.00
7026;BME280;3554;42.132;24.786;2023-04-30T01:30:41;99046.47;;;14.28;100.00
7026;BME280;3554;42.132;24.786;2023-04-30T01:33:09;99017.78;;;14.23;100.00
7026;BME280;3554;42.132;24.786;2023-04-30T01:38:49;99046.69;;;14.39;100.00
7026;BME280;3554;42.132;24.786;2023-04-30T01:41:28;99043.03;;;14.27;100.00
7026;BME280;3554;42.132;24.786;2023-04-30T01:44:05;99049.50;;;14.50;100.00
7026;BME280;3554;42.132;24.786;2023-04-30T01:46:39;99045.09;;;14.64;100.00
7026;BME280;3554;42.132;24.786;2023-04-30T01:49:14;99036.81;;;14.56;100.00
7026;BME280;3554;42.132;24.786;2023-04-30T01:51:44;99040.97;;;14.46;100.00
7026;BME280;3554;42.132;24.786;2023-04-30T01:54:17;99030.69;;;14.28;100.00
7026;BME280;3554;42.132;24.786;2023-04-30T01:56:55;99028.41;;;14.22;100.00
7026;BME280;3554;42.132;24.786;2023-04-30T01:59:25;99036.22;;;14.23;100.00
7026;BME280;3554;42.132;24.786;2023-04-30T02:01:54;99037.94;;;14.38;100.00
7026;BME280;3554;42.132;24.786;2023-04-30T02:04:21;99033.31;;;14.28;100.00
7026;BME280;3554;42.132;24.786;2023-04-30T02:06:48;99032.25;;;14.16;100.00
7026;BME280;3554;42.132;24.786;2023-04-30T02:09:15;99030.09;;;14.09;100.00
7026;BME280;3554;42.132;24.786;2023-04-30T02:11:41;99035.66;;;14.18;100.00
7026;BME280;3554;42.132;24.786;2023-04-30T02:14:08;99034.88;;;14.16;100.00
7026;BME280;3554;42.132;24.786;2023-04-30T02:16:36;99028.94;;;13.98;100.00
7026;BME280;3554;42.132;24.786;2023-04-30T02:19:03;99025.81;;;13.92;100.00
7026;BME280;3554;42.132;24.786;2023-04-30T02:21:30;99032.41;;;13.99;100.00
7026;BME280;3554;42.132;24.786;2023-04-30T02:23:57;99027.19;;;14.13;100.00
7026;BME280;3554;42.132;24.786;2023-04-30T02:26:24;99040.53;;;14.24;100.00
7026;BME280;3554;42.132;24.786;2023-04-30T02:28:51;99046.69;;;14.39;100.00
7026;BME280;3554;42.132;24.786;2023-04-30T02:31:18;99038.03;;;14.37;100.00
7026;BME280;3554;42.132;24.786;2023-04-30T02:33:46;99040.63;;;14.23;100.00
7026;BME280;3554;42.132;24.786;2023-04-30T02:36:12;99033.94;;;14.17;100.00
7026;BME280;3554;42.132;24.786;2023-04-30T02:38:39;99038.75;;;14.25;100.00
7026;BME280;3554;42.132;24.786;2023-04-30T02:41:06;99043.94;;;14.40;100.00
7026;BME280;3554;42.132;24.786;2023-04-30T02:43:33;99032.50;;;14.55;100.00
7026;BME280;3554;42.132;24.786;2023-04-30T02:45:59;99034.38;;;14.53;100.00
7026;BME280;3554;42.132;24.786;2023-04-30T02:48:26;99047.94;;;14.61;100.00
7026;BME280;3554;42.132;24.786;2023-04-30T02:50:54;99042.72;;;14.46;100.00
7026;BME280;3554;42.132;24.786;2023-04-30T02:53:21;99040.75;;;14.49;100.00
7026;BME280;3554;42.132;24.786;2023-04-30T02:55:48;99044.13;;;14.65;100.00
7026;BME280;3554;42.132;24.786;2023-04-30T02:58:15;99040.38;;;14.55;100.00
7026;BME280;3554;42.132;24.786;2023-04-30T03:00:41;99045.28;;;14.47;100.00
7026;BME280;3554;42.132;24.786;2023-04-30T03:03:08;99047.06;;;14.61;100.00
7026;BME280;3554;42.132;24.786;2023-04-30T03:05:35;99050.28;;;14.38;100.00
7026;BME280;3554;42.132;24.786;2023-04-30T03:08:03;99050.59;;;14.18;100.00
7026;BME280;3554;42.132;24.786;2023-04-30T03:10:30;99044.63;;;14.44;100.00
7026;BME280;3554;42.132;24.786;2023-04-30T03:12:56;99045.84;;;14.52;100.00
7026;BME280;3554;42.132;24.786;2023-04-30T03:15:23;99045.94;;;14.65;100.00
7026;BME280;3554;42.132;24.786;2023-04-30T03:17:50;99011.69;;;14.37;100.00
7026;BME280;3554;42.132;24.786;2023-04-30T03:20:17;99062.31;;;14.70;100.00
7026;BME280;3554;42.132;24.786;2023-04-30T03:22:43;99049.69;;;14.75;100.00
7026;BME280;3554;42.132;24.786;2023-04-30T03:25:11;99049.41;;;14.65;100.00
7026;BME280;3554;42.132;24.786;2023-04-30T03:27:38;99051.66;;;14.71;100.00
7026;BME280;3554;42.132;24.786;2023-04-30T03:30:06;99052.44;;;14.73;100.00
7026;BME280;3554;42.132;24.786;2023-04-30T03:32:33;99055.97;;;14.72;100.00
7026;BME280;3554;42.132;24.786;2023-04-30T03:35:00;99057.28;;;14.79;100.00
7026;BME280;3554;42.132;24.786;2023-04-30T03:37:26;99074.81;;;14.80;100.00
7026;BME280;3554;42.132;24.786;2023-04-30T03:39:53;99065.03;;;14.68;100.00
7026;BME280;3554;42.132;24.786;2023-04-30T03:42:21;99075.38;;;14.57;100.00
7026;BME280;3554;42.132;24.786;2023-04-30T03:44:48;99075.28;;;14.59;100.00
7026;BME280;3554;42.132;24.786;2023-04-30T03:47:15;99085.72;;;14.46;100.00
7026;BME280;3554;42.132;24.786;2023-04-30T03:49:41;99082.63;;;14.40;100.00
7026;BME280;3554;42.132;24.786;2023-04-30T03:52:08;99052.09;;;13.78;100.00
7026;BME280;3554;42.132;24.786;2023-04-30T03:54:35;99086.47;;;14.05;100.00
7026;BME280;3554;42.132;24.786;2023-04-30T03:57:02;99073.69;;;13.98;100.00
7026;BME280;3554;42.132;24.786;2023-04-30T03:59:31;99080.72;;;14.28;100.00
7026;BME280;3554;42.132;24.786;2023-04-30T04:01:59;99079.69;;;14.44;100.00
7026;BME280;3554;42.132;24.786;2023-04-30T04:04:25;99091.19;;;14.57;100.00
7026;BME280;3554;42.132;24.786;2023-04-30T04:06:52;99087.34;;;14.63;100.00
7026;BME280;3554;42.132;24.786;2023-04-30T04:09:19;99083.56;;;14.67;100.00
7026;BME280;3554;42.132;24.786;2023-04-30T04:11:46;99088.66;;;14.70;100.00
7026;BME280;3554;42.132;24.786;2023-04-30T04:14:13;99083.47;;;14.68;100.00
7026;BME280;3554;42.132;24.786;2023-04-30T04:16:42;99100.59;;;14.61;100.00
7026;BME280;3554;42.132;24.786;2023-04-30T04:19:09;99091.94;;;14.73;100.00
7026;BME280;3554;42.132;24.786;2023-04-30T04:21:37;99090.41;;;14.83;100.00
7026;BME280;3554;42.132;24.786;2023-04-30T04:24:04;99088.81;;;14.81;100.00
7026;BME280;3554;42.132;24.786;2023-04-30T04:26:33;99095.31;;;14.89;100.00
7026;BME280;3554;42.132;24.786;2023-04-30T04:29:00;99096.25;;;14.88;100.00
7026;BME280;3554;42.132;24.786;2023-04-30T04:31:28;99091.53;;;14.79;100.00
7026;BME280;3554;42.132;24.786;2023-04-30T04:33:58;99103.88;;;14.93;100.00
7026;BME280;3554;42.132;24.786;2023-04-30T04:36:25;99099.72;;;15.03;100.00
7026;BME280;3554;42.132;24.786;2023-04-30T04:38:53;99095.31;;;15.03;100.00
7026;BME280;3554;42.132;24.786;2023-04-30T04:41:20;99095.84;;;15.09;100.00
7026;BME280;3554;42.132;24.786;2023-04-30T04:43:47;99095.28;;;15.18;100.00
7026;BME280;3554;42.132;24.786;2023-04-30T04:46:14;99094.75;;;15.39;100.00
7026;BME280;3554;42.132;24.786;2023-04-30T04:48:41;99103.69;;;15.51;100.00
7026;BME280;3554;42.132;24.786;2023-04-30T04:51:10;99099.59;;;15.59;100.00
7026;BME280;3554;42.132;24.786;2023-04-30T04:53:36;99070.56;;;15.47;100.00
7026;BME280;3554;42.132;24.786;2023-04-30T04:56:04;99107.91;;;15.80;100.00
7026;BME280;3554;42.132;24.786;2023-04-30T04:58:31;99106.81;;;15.96;100.00
7026;BME280;3554;42.132;24.786;2023-04-30T05:00:58;99104.03;;;15.85;100.00
7026;BME280;3554;42.132;24.786;2023-04-30T05:03:25;99100.94;;;15.79;100.00
7026;BME280;3554;42.132;24.786;2023-04-30T05:05:52;99109.50;;;15.82;100.00
7026;BME280;3554;42.132;24.786;2023-04-30T05:08:20;99103.03;;;15.74;100.00
7026;BME280;3554;42.132;24.786;2023-04-30T05:10:47;99107.00;;;15.67;100.00
7026;BME280;3554;42.132;24.786;2023-04-30T05:13:14;99103.56;;;15.79;100.00
7026;BME280;3554;42.132;24.786;2023-04-30T05:15:41;99105.13;;;16.08;100.00
7026;BME280;3554;42.132;24.786;2023-04-30T05:18:07;99107.63;;;15.97;100.00
7026;BME280;3554;42.132;24.786;2023-04-30T05:20:34;99086.94;;;15.91;100.00
7026;BME280;3554;42.132;24.786;2023-04-30T05:23:01;99103.09;;;15.60;100.00
7026;BME280;3554;42.132;24.786;2023-04-30T05:25:29;99106.25;;;15.65;100.00
7026;BME280;3554;42.132;24.786;2023-04-30T05:27:56;99093.94;;;16.17;100.00
7026;BME280;3554;42.132;24.786;2023-04-30T05:30:22;99112.41;;;16.56;100.00
7026;BME280;3554;42.132;24.786;2023-04-30T05:32:49;99102.19;;;17.00;100.00
7026;BME280;3554;42.132;24.786;2023-04-30T05:35:17;99105.03;;;17.23;100.00
7026;BME280;3554;42.132;24.786;2023-04-30T05:37:44;99070.59;;;16.99;100.00
7026;BME280;3554;42.132;24.786;2023-04-30T05:40:11;99111.78;;;17.63;100.00
7026;BME280;3554;42.132;24.786;2023-04-30T05:42:40;99123.53;;;17.46;100.00
7026;BME280;3554;42.132;24.786;2023-04-30T05:45:08;99118.78;;;17.15;100.00
7026;BME280;3554;42.132;24.786;2023-04-30T05:47:36;99112.31;;;17.19;100.00
7026;BME280;3554;42.132;24.786;2023-04-30T05:50:04;99121.47;;;17.39;100.00
7026;BME280;3554;42.132;24.786;2023-04-30T05:52:31;99126.44;;;17.43;100.00
7026;BME280;3554;42.132;24.786;2023-04-30T05:54:57;99128.03;;;17.69;100.00
7026;BME280;3554;42.132;24.786;2023-04-30T05:57:24;99130.31;;;17.86;100.00
7026;BME280;3554;42.132;24.786;2023-04-30T05:59:52;99127.31;;;17.91;100.00
7026;BME280;3554;42.132;24.786;2023-04-30T06:02:19;99129.50;;;18.21;100.00
7026;BME280;3554;42.132;24.786;2023-04-30T06:04:46;99133.56;;;18.13;100.00
7026;BME280;3554;42.132;24.786;2023-04-30T06:07:13;99134.88;;;18.43;100.00
7026;BME280;3554;42.132;24.786;2023-04-30T06:09:40;99138.09;;;18.35;100.00
7026;BME280;3554;42.132;24.786;2023-04-30T06:12:06;99138.88;;;18.48;100.00
7026;BME280;3554;42.132;24.786;2023-04-30T06:14:34;99108.22;;;18.33;100.00
7026;BME280;3554;42.132;24.786;2023-04-30T06:17:02;99139.03;;;18.34;100.00
7026;BME280;3554;42.132;24.786;2023-04-30T06:19:29;99139.13;;;18.56;100.00
7026;BME280;3554;42.132;24.786;2023-04-30T06:21:56;99147.44;;;18.63;100.00
7026;BME280;3554;42.132;24.786;2023-04-30T06:24:22;99153.84;;;17.55;100.00
7026;BME280;3554;42.132;24.786;2023-04-30T06:26:51;99149.53;;;17.29;100.00
7026;BME280;3554;42.132;24.786;2023-04-30T06:29:18;99137.34;;;17.51;100.00
7026;BME280;3554;42.132;24.786;2023-04-30T06:31:45;99145.25;;;17.02;100.00
7026;BME280;3554;42.132;24.786;2023-04-30T06:34:13;99143.53;;;17.63;100.00
7026;BME280;3554;42.132;24.786;2023-04-30T06:36:40;99147.28;;;17.60;100.00
7026;BME280;3554;42.132;24.786;2023-04-30T06:39:07;99139.63;;;17.92;100.00
7026;BME280;3554;42.132;24.786;2023-04-30T06:41:34;99134.69;;;17.75;100.00
7026;BME280;3554;42.132;24.786;2023-04-30T06:44:00;99130.94;;;17.90;100.00
7026;BME280;3554;42.132;24.786;2023-04-30T06:46:27;99125.78;;;18.34;100.00
7026;BME280;3554;42.132;24.786;2023-04-30T06:48:54;99130.84;;;18.72;100.00
7026;BME280;3554;42.132;24.786;2023-04-30T06:51:22;99136.16;;;18.37;100.00
7026;BME280;3554;42.132;24.786;2023-04-30T06:53:48;99124.66;;;18.49;100.00
7026;BME280;3554;42.132;24.786;2023-04-30T06:56:15;99113.72;;;18.76;100.00
7026;BME280;3554;42.132;24.786;2023-04-30T06:58:42;99135.44;;;18.81;100.00
7026;BME280;3554;42.132;24.786;2023-04-30T07:01:09;99121.69;;;19.20;100.00
7026;BME280;3554;42.132;24.786;2023-04-30T07:03:36;99108.41;;;19.20;100.00
7026;BME280;3554;42.132;24.786;2023-04-30T07:06:03;99118.41;;;19.39;100.00
7026;BME280;3554;42.132;24.786;2023-04-30T07:08:31;99117.53;;;19.60;100.00
7026;BME280;3554;42.132;24.786;2023-04-30T07:10:58;99123.84;;;19.48;100.00
7026;BME280;3554;42.132;24.786;2023-04-30T07:13:24;99115.84;;;19.70;100.00
7026;BME280;3554;42.132;24.786;2023-04-30T07:15:51;99124.31;;;19.53;100.00
7026;BME280;3554;42.132;24.786;2023-04-30T07:18:19;99114.81;;;19.51;100.00
7026;BME280;3554;42.132;24.786;2023-04-30T07:20:46;99088.72;;;19.56;100.00
7026;BME280;3554;42.132;24.786;2023-04-30T07:23:12;99112.75;;;19.86;100.00
7026;BME280;3554;42.132;24.786;2023-04-30T07:25:40;99116.78;;;19.69;100.00
7026;BME280;3554;42.132;24.786;2023-04-30T07:28:07;99117.31;;;19.95;100.00
7026;BME280;3554;42.132;24.786;2023-04-30T07:30:34;99117.00;;;20.09;100.00
7026;BME280;3554;42.132;24.786;2023-04-30T07:33:01;99113.75;;;20.16;100.00
7026;BME280;3554;42.132;24.786;2023-04-30T07:35:27;99123.47;;;20.27;100.00
7026;BME280;3554;42.132;24.786;2023-04-30T07:37:55;99120.38;;;20.11;100.00
7026;BME280;3554;42.132;24.786;2023-04-30T07:40:22;99119.66;;;20.20;100.00
7026;BME280;3554;42.132;24.786;2023-04-30T07:42:50;99111.84;;;20.28;100.00
7026;BME280;3554;42.132;24.786;2023-04-30T07:45:17;99117.31;;;20.47;100.00
7026;BME280;3554;42.132;24.786;2023-04-30T07:47:44;99115.56;;;20.57;100.00
7026;BME280;3554;42.132;24.786;2023-04-30T07:50:12;99117.53;;;20.85;100.00
7026;BME280;3554;42.132;24.786;2023-04-30T07:52:39;99116.09;;;20.81;100.00
7026;BME280;3554;42.132;24.786;2023-04-30T07:55:07;99117.00;;;20.91;100.00
7026;BME280;3554;42.132;24.786;2023-04-30T07:57:33;99121.34;;;20.92;100.00
7026;BME280;3554;42.132;24.786;2023-04-30T08:00:02;99110.75;;;20.51;100.00
7026;BME280;3554;42.132;24.786;2023-04-30T08:02:28;99119.66;;;20.61;100.00
7026;BME280;3554;42.132;24.786;2023-04-30T08:04:55;99117.47;;;20.76;100.00
7026;BME280;3554;42.132;24.786;2023-04-30T08:07:22;99119.56;;;20.72;100.00
7026;BME280;3554;42.132;24.786;2023-04-30T08:09:49;99113.34;;;20.62;100.00
7026;BME280;3554;42.132;24.786;2023-04-30T08:12:16;99109.41;;;20.87;100.00
7026;BME280;3554;42.132;24.786;2023-04-30T08:14:43;99116.66;;;20.75;100.00
7026;BME280;3554;42.132;24.786;2023-04-30T08:17:11;99105.31;;;20.32;100.00
7026;BME280;3554;42.132;24.786;2023-04-30T08:19:38;99106.03;;;20.85;100.00
7026;BME280;3554;42.132;24.786;2023-04-30T08:22:04;99104.84;;;21.28;100.00
7026;BME280;3554;42.132;24.786;2023-04-30T08:24:31;99101.19;;;21.29;97.42
7026;BME280;3554;42.132;24.786;2023-04-30T08:26:58;99103.91;;;21.49;100.00
7026;BME280;3554;42.132;24.786;2023-04-30T08:29:27;99101.81;;;21.52;99.98
7026;BME280;3554;42.132;24.786;2023-04-30T08:31:54;99100.16;;;21.61;94.00
7026;BME280;3554;42.132;24.786;2023-04-30T08:34:24;99103.16;;;21.86;94.40
7026;BME280;3554;42.132;24.786;2023-04-30T08:36:51;99101.06;;;21.80;88.11
7026;BME280;3554;42.132;24.786;2023-04-30T08:39:17;99106.63;;;21.77;85.64
7026;BME280;3554;42.132;24.786;2023-04-30T08:41:45;99100.59;;;21.66;89.99
7026;BME280;3554;42.132;24.786;2023-04-30T08:44:15;99103.53;;;21.63;85.83
7026;BME280;3554;42.132;24.786;2023-04-30T08:46:42;99103.53;;;21.72;79.54
7026;BME280;3554;42.132;24.786;2023-04-30T08:49:10;99099.09;;;21.82;79.51
7026;BME280;3554;42.132;24.786;2023-04-30T08:51:39;99104.00;;;22.06;83.65
7026;BME280;3554;42.132;24.786;2023-04-30T08:54:09;99100.63;;;21.85;72.96
7026;BME280;3554;42.132;24.786;2023-04-30T08:56:38;99107.50;;;21.97;73.36
7026;BME280;3554;42.132;24.786;2023-04-30T08:59:05;99090.50;;;21.69;73.60
7026;BME280;3554;42.132;24.786;2023-04-30T09:01:33;99087.03;;;21.78;85.62
7026;BME280;3554;42.132;24.786;2023-04-30T09:04:02;99029.19;;;21.60;84.20
7026;BME280;3554;42.132;24.786;2023-04-30T09:06:28;99087.88;;;21.98;79.96
7026;BME280;3554;42.132;24.786;2023-04-30T09:09:07;99090.69;;;22.25;76.00
7026;BME280;3554;42.132;24.786;2023-04-30T09:11:35;99091.34;;;22.27;71.93
7026;BME280;3554;42.132;24.786;2023-04-30T09:14:02;99083.50;;;22.45;73.08
7026;BME280;3554;42.132;24.786;2023-04-30T09:16:42;99058.34;;;22.38;70.13
7026;BME280;3554;42.132;24.786;2023-04-30T09:19:19;99079.53;;;22.49;63.44
7026;BME280;3554;42.132;24.786;2023-04-30T09:21:47;99091.44;;;22.54;66.36
7026;BME280;3554;42.132;24.786;2023-04-30T09:24:15;99081.94;;;22.42;65.56
7026;BME280;3554;42.132;24.786;2023-04-30T09:26:42;99089.78;;;22.53;70.52
7026;BME280;3554;42.132;24.786;2023-04-30T09:29:11;99086.78;;;22.75;61.21
7026;BME280;3554;42.132;24.786;2023-04-30T09:31:40;99067.09;;;22.30;55.93
7026;BME280;3554;42.132;24.786;2023-04-30T09:34:07;99089.22;;;22.40;59.44
7026;BME280;3554;42.132;24.786;2023-04-30T09:36:34;99074.34;;;22.47;61.30
7026;BME280;3554;42.132;24.786;2023-04-30T09:39:07;99069.69;;;22.49;55.62
7026;BME280;3554;42.132;24.786;2023-04-30T09:41:37;99059.44;;;22.64;58.42
7026;BME280;3554;42.132;24.786;2023-04-30T09:44:04;99066.03;;;22.96;57.40
7026;BME280;3554;42.132;24.786;2023-04-30T09:46:31;99059.59;;;23.53;54.33
7026;BME280;3554;42.132;24.786;2023-04-30T09:49:00;99060.41;;;23.54;51.79
7026;BME280;3554;42.132;24.786;2023-04-30T09:51:27;99033.16;;;23.50;50.81
7026;BME280;3554;42.132;24.786;2023-04-30T09:53:54;99056.19;;;23.06;48.50
7026;BME280;3554;42.132;24.786;2023-04-30T09:56:22;99046.97;;;22.91;57.25
7026;BME280;3554;42.132;24.786;2023-04-30T09:58:52;99041.88;;;22.05;52.63
7026;BME280;3554;42.132;24.786;2023-04-30T10:01:20;99039.06;;;21.78;56.91
7026;BME280;3554;42.132;24.786;2023-04-30T10:03:47;99043.81;;;21.94;63.05
7026;BME280;3554;42.132;24.786;2023-04-30T10:06:15;99043.41;;;22.54;60.19
7026;BME280;3554;42.132;24.786;2023-04-30T10:08:46;99046.41;;;22.88;57.75
7026;BME280;3554;42.132;24.786;2023-04-30T10:11:17;99040.22;;;22.60;54.43
7026;BME280;3554;42.132;24.786;2023-04-30T10:13:50;99053.34;;;22.81;54.00
7026;BME280;3554;42.132;24.786;2023-04-30T10:16:33;99045.72;;;23.13;53.70
7026;BME280;3554;42.132;24.786;2023-04-30T10:19:06;99039.72;;;23.56;51.91
7026;BME280;3554;42.132;24.786;2023-04-30T10:21:38;99040.63;;;23.29;49.48
7026;BME280;3554;42.132;24.786;2023-04-30T10:24:07;99037.00;;;22.57;51.17
7026;BME280;3554;42.132;24.786;2023-04-30T10:26:34;99035.78;;;22.22;53.07
7026;BME280;3554;42.132;24.786;2023-04-30T10:29:04;99040.84;;;22.81;51.58
7026;BME280;3554;42.132;24.786;2023-04-30T10:31:33;99029.75;;;22.76;58.80
7026;BME280;3554;42.132;24.786;2023-04-30T10:34:13;99030.38;;;22.97;56.18
7026;BME280;3554;42.132;24.786;2023-04-30T10:36:45;99029.16;;;23.09;54.14
7026;BME280;3554;42.132;24.786;2023-04-30T10:39:13;99030.63;;;23.49;51.45
7026;BME280;3554;42.132;24.786;2023-04-30T10:41:44;99021.88;;;23.39;50.70
7026;BME280;3554;42.132;24.786;2023-04-30T10:44:13;99019.03;;;23.58;53.37
7026;BME280;3554;42.132;24.786;2023-04-30T10:46:39;99023.84;;;23.54;51.02
7026;BME280;3554;42.132;24.786;2023-04-30T10:49:07;99023.63;;;23.65;52.38
7026;BME280;3554;42.132;24.786;2023-04-30T10:51:45;99017.72;;;22.99;50.19
7026;BME280;3554;42.132;24.786;2023-04-30T10:54:13;99022.78;;;22.93;52.17
7026;BME280;3554;42.132;24.786;2023-04-30T10:56:44;99012.28;;;22.45;52.71
7026;BME280;3554;42.132;24.786;2023-04-30T10:59:13;99018.50;;;23.09;58.12
7026;BME280;3554;42.132;24.786;2023-04-30T11:01:55;99009.19;;;23.58;51.75
7026;BME280;3554;42.132;24.786;2023-04-30T11:04:23;99005.44;;;23.86;49.74
7026;BME280;3554;42.132;24.786;2023-04-30T11:06:55;98979.38;;;23.88;48.36
7026;BME280;3554;42.132;24.786;2023-04-30T11:09:37;99007.38;;;24.19;53.43
7026;BME280;3554;42.132;24.786;2023-04-30T11:12:10;98999.78;;;23.54;52.65
7026;BME280;3554;42.132;24.786;2023-04-30T11:14:41;99002.47;;;23.54;56.73
7026;BME280;3554;42.132;24.786;2023-04-30T11:17:09;99007.44;;;23.49;52.40
7026;BME280;3554;42.132;24.786;2023-04-30T11:19:45;98997.06;;;23.64;51.91
7026;BME280;3554;42.132;24.786;2023-04-30T11:22:17;98982.41;;;23.23;50.21
7026;BME280;3554;42.132;24.786;2023-04-30T11:24:52;98992.78;;;22.81;55.89
7026;BME280;3554;42.132;24.786;2023-04-30T11:27:19;99001.88;;;22.88;58.26
7026;BME280;3554;42.132;24.786;2023-04-30T11:29:49;98995.28;;;22.92;56.22
7026;BME280;3554;42.132;24.786;2023-04-30T11:32:17;98997.44;;;22.79;51.29
7026;BME280;3554;42.132;24.786;2023-04-30T11:34:44;98986.06;;;22.77;56.27
7026;BME280;3554;42.132;24.786;2023-04-30T11:37:12;98976.19;;;22.87;53.62
7026;BME280;3554;42.132;24.786;2023-04-30T11:39:40;98951.56;;;22.66;53.42
7026;BME280;3554;42.132;24.786;2023-04-30T11:42:07;98986.59;;;23.08;56.95
7026;BME280;3554;42.132;24.786;2023-04-30T11:44:34;98978.59;;;23.35;51.36
7026;BME280;3554;42.132;24.786;2023-04-30T11:47:04;98968.66;;;23.00;53.07
7026;BME280;3554;42.132;24.786;2023-04-30T11:49:31;98980.59;;;22.96;52.22
7026;BME280;3554;42.132;24.786;2023-04-30T11:51:58;98973.84;;;23.19;52.23
7026;BME280;3554;42.132;24.786;2023-04-30T11:54:25;98973.00;;;23.46;51.37
7026;BME280;3554;42.132;24.786;2023-04-30T11:56:52;98972.06;;;23.55;49.98
7026;BME280;3554;42.132;24.786;2023-04-30T11:59:19;98971.81;;;23.84;50.62
7026;BME280;3554;42.132;24.786;2023-04-30T12:01:45;98970.06;;;23.92;52.08
7026;BME280;3554;42.132;24.786;2023-04-30T12:04:14;98966.69;;;24.08;49.09
7026;BME280;3554;42.132;24.786;2023-04-30T12:06:41;98949.97;;;24.06;50.76
7026;BME280;3554;42.132;24.786;2023-04-30T12:09:07;98953.63;;;23.44;49.83
7026;BME280;3554;42.132;24.786;2023-04-30T12:11:35;98899.16;;;22.92;52.97
7026;BME280;3554;42.132;24.786;2023-04-30T12:14:03;98948.03;;;22.93;53.57
7026;BME280;3554;42.132;24.786;2023-04-30T12:16:40;98938.59;;;22.98;52.88
7026;BME280;3554;42.132;24.786;2023-04-30T12:19:07;98938.38;;;23.09;53.67
7026;BME280;3554;42.132;24.786;2023-04-30T12:21:36;98952.75;;;23.26;53.49
7026;BME280;3554;42.132;24.786;2023-04-30T12:24:04;98944.03;;;23.24;50.94
7026;BME280;3554;42.132;24.786;2023-04-30T12:26:34;98953.72;;;23.25;50.62
7026;BME280;3554;42.132;24.786;2023-04-30T12:29:03;98950.50;;;23.21;49.63
7026;BME280;3554;42.132;24.786;2023-04-30T12:31:31;98956.00;;;23.20;50.39
7026;BME280;3554;42.132;24.786;2023-04-30T12:34:02;98940.81;;;22.58;63.44
7026;BME280;3554;42.132;24.786;2023-04-30T12:36:30;98938.41;;;19.44;94.26
7026;BME280;3554;42.132;24.786;2023-04-30T12:39:16;98936.84;;;17.66;100.00
7026;BME280;3554;42.132;24.786;2023-04-30T12:41:44;98926.00;;;16.99;100.00
7026;BME280;3554;42.132;24.786;2023-04-30T12:44:15;98938.97;;;16.43;100.00
7026;BME280;3554;42.132;24.786;2023-04-30T12:46:42;98973.00;;;15.84;100.00
7026;BME280;3554;42.132;24.786;2023-04-30T12:49:10;98935.09;;;15.73;100.00
7026;BME280;3554;42.132;24.786;2023-04-30T12:51:38;98952.00;;;15.95;100.00
7026;BME280;3554;42.132;24.786;2023-04-30T12:54:08;98915.38;;;15.91;100.00
7026;BME280;3554;42.132;24.786;2023-04-30T12:56:36;98875.75;;;16.40;100.00
7026;BME280;3554;42.132;24.786;2023-04-30T12:59:13;98769.34;;;16.50;100.00
7026;BME280;3554;42.132;24.786;2023-04-30T13:01:43;98777.25;;;16.50;100.00
7026;BME280;3554;42.132;24.786;2023-04-30T13:04:10;98826.22;;;16.90;100.00
7026;BME280;3554;42.132;24.786;2023-04-30T13:06:37;98846.56;;;17.01;100.00
7026;BME280;3554;42.132;24.786;2023-04-30T13:09:04;98853.94;;;17.20;100.00
7026;BME280;3554;42.132;24.786;2023-04-30T13:11:30;98870.06;;;17.62;100.00